createdAt,value
2016-09-01T00:00:40.544Z,100.00
2016-09-01T00:01:40.177Z,100.00
2016-09-01T00:02:23.985Z,100.00
2016-09-01T00:03:26.258Z,100.00
2016-09-01T00:04:37.338Z,100.00
2016-09-01T00:05:33.126Z,100.00
2016-09-01T00:06:28.946Z,100.00
2016-09-01T00:07:31.220Z,100.00
2016-09-01T00:08:25.057Z,100.00
2016-09-01T00:09:28.036Z,100.00
2016-09-01T00:10:31.646Z,100.00
2016-09-01T00:11:39.920Z,100.00
2016-09-01T00:12:39.328Z,100.00
2016-09-01T00:13:35.918Z,100.00
2016-09-01T00:14:19.575Z,100.00
2016-09-01T00:15:24.487Z,100.00
2016-09-01T00:16:39.483Z,100.00
2016-09-01T00:17:56.633Z,100.00
2016-09-01T00:18:34.541Z,100.00
2016-09-01T00:19:26.842Z,100.00
2016-09-01T00:20:33.748Z,100.00
2016-09-01T00:21:29.969Z,100.00
2016-09-01T00:22:33.551Z,100.00
2016-09-01T00:23:50.714Z,100.00
2016-09-01T00:24:39.400Z,100.00
2016-09-01T00:25:29.304Z,100.00
2016-09-01T00:26:39.596Z,100.00
2016-09-01T00:27:28.953Z,100.00
2016-09-01T00:28:43.562Z,100.00
2016-09-01T00:30:11.888Z,100.00
2016-09-01T00:30:40.275Z,100.00
2016-09-01T00:31:35.068Z,100.00
2016-09-01T00:32:35.199Z,100.00
2016-09-01T00:33:26.294Z,100.00
2016-09-01T00:34:39.076Z,100.00
2016-09-01T00:35:28.295Z,100.00
2016-09-01T00:36:27.276Z,100.00
2016-09-01T00:37:26.665Z,100.00
2016-09-01T00:38:42.478Z,100.00
2016-09-01T00:39:33.839Z,100.00
2016-09-01T00:40:39.735Z,100.00
2016-09-01T00:41:43.407Z,100.00
2016-09-01T00:42:30.370Z,100.00
2016-09-01T00:43:35.608Z,100.00
2016-09-01T00:44:29.823Z,100.00
2016-09-01T00:45:36.260Z,100.00
2016-09-01T00:46:34.151Z,100.00
2016-09-01T00:47:31.940Z,100.00
2016-09-01T00:48:29.876Z,100.00
2016-09-01T00:49:40.115Z,100.00
2016-09-01T00:50:32.248Z,100.00
2016-09-01T00:51:39.960Z,100.00
2016-09-01T00:52:25.761Z,100.00
2016-09-01T00:53:33.929Z,100.00
2016-09-01T00:54:39.373Z,100.00
2016-09-01T00:55:28.534Z,100.00
2016-09-01T00:56:34.756Z,100.00
2016-09-01T00:57:41.582Z,100.00
2016-09-01T00:58:34.747Z,100.00
2016-09-01T00:59:27.033Z,100.00
2016-09-01T01:00:34.326Z,100.00
2016-09-01T01:02:35.576Z,100.00
2016-09-01T01:03:34.707Z,100.00
2016-09-01T01:04:30.726Z,100.00
2016-09-01T01:05:51.520Z,100.00
2016-09-01T01:06:33.893Z,100.00
2016-09-01T01:07:29.758Z,100.00
2016-09-01T01:08:56.703Z,100.00
2016-09-01T01:09:31.322Z,100.00
2016-09-01T01:10:39.478Z,100.00
2016-09-01T01:11:26.975Z,100.00
2016-09-01T01:12:35.036Z,100.00
2016-09-01T01:13:26.229Z,100.00
2016-09-01T01:14:31.317Z,100.00
2016-09-01T01:15:39.497Z,100.00
2016-09-01T01:16:34.651Z,100.00
2016-09-01T01:17:24.320Z,100.00
2016-09-01T01:18:42.627Z,100.00
2016-09-01T01:19:43.150Z,100.00
2016-09-01T01:20:38.974Z,100.00
2016-09-01T01:21:38.719Z,100.00
2016-09-01T01:22:28.840Z,100.00
2016-09-01T01:23:29.381Z,100.00
2016-09-01T01:24:25.129Z,100.00
2016-09-01T01:25:51.596Z,100.00
2016-09-01T01:26:26.829Z,100.00
2016-09-01T01:27:32.716Z,100.00
2016-09-01T01:28:28.302Z,100.00
2016-09-01T01:29:39.329Z,100.00
2016-09-01T01:30:41.347Z,100.00
2016-09-01T01:31:30.970Z,100.00
2016-09-01T01:32:30.707Z,100.00
2016-09-01T01:33:34.603Z,100.00
2016-09-01T01:34:31.060Z,100.00
2016-09-01T01:35:34.800Z,100.00
2016-09-01T01:36:31.144Z,100.00
2016-09-01T01:37:34.250Z,100.00
2016-09-01T01:38:31.841Z,100.00
2016-09-01T01:39:38.224Z,100.00
2016-09-01T01:40:42.311Z,100.00
2016-09-01T01:41:34.317Z,100.00
2016-09-01T01:42:24.020Z,100.00
2016-09-01T01:43:39.326Z,100.00
2016-09-01T01:44:32.727Z,100.00
2016-09-01T01:45:34.398Z,100.00
2016-09-01T01:46:26.513Z,100.00
2016-09-01T01:47:33.640Z,100.00
2016-09-01T01:48:28.284Z,100.00
2016-09-01T01:49:33.733Z,100.00
2016-09-01T01:50:39.883Z,100.00
2016-09-01T01:51:54.537Z,100.00
2016-09-01T01:52:51.672Z,100.00
2016-09-01T01:53:38.695Z,100.00
2016-09-01T01:54:39.681Z,100.00
2016-09-01T01:55:34.816Z,100.00
2016-09-01T01:56:27.998Z,100.00
2016-09-01T01:57:51.020Z,100.00
2016-09-01T01:59:02.520Z,100.00
2016-09-01T01:59:25.385Z,100.00
2016-09-01T02:00:34.118Z,100.00
2016-09-01T02:01:25.139Z,100.00
2016-09-01T02:02:52.210Z,100.00
2016-09-01T02:03:35.559Z,100.00
2016-09-01T02:04:44.718Z,100.00
2016-09-01T02:05:41.348Z,100.00
2016-09-01T02:06:38.102Z,100.00
2016-09-01T02:07:24.258Z,100.00
2016-09-01T02:08:34.279Z,100.00
2016-09-01T02:09:32.175Z,100.00
2016-09-01T02:10:34.029Z,100.00
2016-09-01T02:11:34.003Z,100.00
2016-09-01T02:12:38.263Z,100.00
2016-09-01T02:13:28.972Z,100.00
2016-09-01T02:14:39.339Z,100.00
2016-09-01T02:15:39.549Z,100.00
2016-09-01T02:16:32.148Z,100.00
2016-09-01T02:17:33.295Z,100.00
2016-09-01T02:18:51.069Z,100.00
2016-09-01T02:19:38.160Z,100.00
2016-09-01T02:20:33.321Z,100.00
2016-09-01T02:21:27.322Z,100.00
2016-09-01T02:22:32.804Z,100.00
2016-09-01T02:23:39.968Z,100.00
2016-09-01T02:24:33.080Z,100.00
2016-09-01T02:25:29.789Z,100.00
2016-09-01T02:26:57.797Z,100.00
2016-09-01T02:27:25.915Z,100.00
2016-09-01T02:28:33.752Z,100.00
2016-09-01T02:29:34.982Z,100.00
2016-09-01T02:30:28.787Z,100.00
2016-09-01T02:33:03.438Z,100.00
2016-09-01T02:33:19.566Z,100.00
2016-09-01T02:34:27.718Z,100.00
2016-09-01T02:35:52.027Z,100.00
2016-09-01T02:36:31.348Z,100.00
2016-09-01T02:37:28.871Z,100.00
2016-09-01T02:38:34.079Z,100.00
2016-09-01T02:39:28.328Z,100.00
2016-09-01T02:40:32.445Z,100.00
2016-09-01T02:41:27.023Z,100.00
2016-09-01T02:43:23.837Z,100.00
2016-09-01T02:43:30.610Z,100.00
2016-09-01T02:44:26.435Z,100.00
2016-09-01T02:45:33.772Z,100.00
2016-09-01T02:46:58.122Z,100.00
2016-09-01T02:47:30.299Z,100.00
2016-09-01T02:48:33.434Z,100.00
2016-09-01T02:49:52.242Z,100.00
2016-09-01T02:50:24.710Z,100.00
2016-09-01T02:51:32.812Z,100.00
2016-09-01T02:52:43.349Z,100.00
2016-09-01T02:53:29.885Z,100.00
2016-09-01T02:54:34.119Z,100.00
2016-09-01T02:55:33.040Z,100.00
2016-09-01T02:56:25.992Z,100.00
2016-09-01T02:57:27.983Z,100.00
2016-09-01T02:58:32.435Z,100.00
2016-09-01T02:59:34.641Z,100.00
2016-09-01T03:01:25.593Z,100.00
2016-09-01T03:02:32.873Z,100.00
2016-09-01T03:03:45.047Z,100.00
2016-09-01T03:04:30.196Z,100.00
2016-09-01T03:05:26.593Z,100.00
2016-09-01T03:06:25.374Z,100.00
2016-09-01T03:07:34.505Z,100.00
2016-09-01T03:08:26.945Z,100.00
2016-09-01T03:09:36.257Z,100.00
2016-09-01T03:10:25.170Z,100.00
2016-09-01T03:11:39.576Z,100.00
2016-09-01T03:12:28.248Z,100.00
2016-09-01T03:13:32.477Z,100.00
2016-09-01T03:14:35.589Z,100.00
2016-09-01T03:15:32.746Z,100.00
2016-09-01T03:16:51.263Z,100.00
2016-09-01T03:17:19.867Z,100.00
2016-09-01T03:18:25.669Z,100.00
2016-09-01T03:19:26.081Z,100.00
2016-09-01T03:20:33.301Z,100.00
2016-09-01T03:21:33.838Z,100.00
2016-09-01T03:22:35.005Z,100.00
2016-09-01T03:23:32.149Z,100.00
2016-09-01T03:24:27.513Z,100.00
2016-09-01T03:25:57.261Z,100.00
2016-09-01T03:26:25.079Z,100.00
2016-09-01T03:27:36.095Z,100.00
2016-09-01T03:28:25.854Z,100.00
2016-09-01T03:29:26.794Z,100.00
2016-09-01T03:30:33.264Z,100.00
2016-09-01T03:31:37.488Z,100.00
2016-09-01T03:32:43.503Z,100.00
2016-09-01T03:33:28.158Z,100.00
2016-09-01T03:34:42.315Z,100.00
2016-09-01T03:35:49.544Z,100.00
2016-09-01T03:36:32.037Z,100.00
2016-09-01T03:37:34.096Z,100.00
2016-09-01T03:38:18.660Z,100.00
2016-09-01T03:39:27.284Z,100.00
2016-09-01T03:40:39.443Z,100.00
2016-09-01T03:41:34.941Z,100.00
2016-09-01T03:42:51.185Z,100.00
2016-09-01T03:43:20.552Z,100.00
2016-09-01T03:44:25.695Z,100.00
2016-09-01T03:45:37.417Z,100.00
2016-09-01T03:46:35.702Z,100.00
2016-09-01T03:47:25.482Z,100.00
2016-09-01T03:48:34.724Z,100.00
2016-09-01T03:49:31.329Z,100.00
2016-09-01T03:50:32.547Z,100.00
2016-09-01T03:51:37.899Z,100.00
2016-09-01T03:52:55.186Z,100.00
2016-09-01T03:53:23.346Z,100.00
2016-09-01T03:54:37.409Z,100.00
2016-09-01T03:55:39.951Z,100.00
2016-09-01T03:56:29.638Z,100.00
2016-09-01T03:57:38.999Z,100.00
2016-09-01T03:58:38.538Z,100.00
2016-09-01T03:59:35.734Z,100.00
2016-09-01T04:00:30.716Z,100.00
2016-09-01T04:02:07.400Z,100.00
2016-09-01T04:02:25.444Z,100.00
2016-09-01T04:03:21.659Z,100.00
2016-09-01T04:04:39.723Z,100.00
2016-09-01T04:05:35.049Z,100.00
2016-09-01T04:06:32.201Z,100.00
2016-09-01T04:07:33.293Z,100.00
2016-09-01T04:08:32.519Z,100.00
2016-09-01T04:09:20.101Z,100.00
2016-09-01T04:10:37.428Z,100.00
2016-09-01T04:11:33.904Z,100.00
2016-09-01T04:12:32.085Z,100.00
2016-09-01T04:13:33.622Z,100.00
2016-09-01T04:14:37.646Z,100.00
2016-09-01T04:15:33.655Z,100.00
2016-09-01T04:16:57.608Z,100.00
2016-09-01T04:17:33.980Z,100.00
2016-09-01T04:18:32.956Z,100.00
2016-09-01T04:19:34.103Z,100.00
2016-09-01T04:20:37.408Z,100.00
2016-09-01T04:21:33.875Z,100.00
2016-09-01T04:22:38.580Z,100.00
2016-09-01T04:23:24.478Z,100.00
2016-09-01T04:24:31.928Z,100.00
2016-09-01T04:25:33.326Z,100.00
2016-09-01T04:26:45.313Z,100.00
2016-09-01T04:27:36.176Z,100.00
2016-09-01T04:28:25.268Z,100.00
2016-09-01T04:29:35.524Z,100.00
2016-09-01T04:30:25.198Z,100.00
2016-09-01T04:31:45.561Z,100.00
2016-09-01T04:32:26.610Z,100.00
2016-09-01T04:33:33.621Z,100.00
2016-09-01T04:34:33.615Z,100.00
2016-09-01T04:36:32.367Z,100.00
2016-09-01T04:37:50.779Z,100.00
2016-09-01T04:38:39.552Z,100.00
2016-09-01T04:39:45.743Z,100.00
2016-09-01T04:40:25.749Z,100.00
2016-09-01T04:41:38.908Z,100.00
2016-09-01T04:42:35.838Z,100.00
2016-09-01T04:43:40.079Z,100.00
2016-09-01T04:44:27.883Z,100.00
2016-09-01T04:45:32.630Z,100.00
2016-09-01T04:46:33.802Z,100.00
2016-09-01T04:47:39.987Z,100.00
2016-09-01T04:48:27.185Z,100.00
2016-09-01T04:49:52.440Z,100.00
2016-09-01T04:50:40.725Z,100.00
2016-09-01T04:51:29.409Z,100.00
2016-09-01T04:52:18.589Z,100.00
2016-09-01T04:53:29.906Z,100.00
2016-09-01T04:54:23.786Z,100.00
2016-09-01T04:55:55.194Z,100.00
2016-09-01T04:56:34.797Z,100.00
2016-09-01T04:57:32.692Z,100.00
2016-09-01T04:58:20.788Z,100.00
2016-09-01T04:59:45.921Z,100.00
2016-09-01T05:00:36.207Z,100.00
2016-09-01T05:01:29.846Z,100.00
2016-09-01T05:02:35.366Z,100.00
2016-09-01T05:03:39.513Z,100.00
2016-09-01T05:04:33.834Z,100.00
2016-09-01T05:05:39.280Z,100.00
2016-09-01T05:06:24.574Z,100.00
2016-09-01T05:07:34.357Z,100.00
2016-09-01T05:08:25.064Z,100.00
2016-09-01T05:09:26.369Z,100.00
2016-09-01T05:10:35.118Z,100.00
2016-09-01T05:11:33.286Z,100.00
2016-09-01T05:12:28.236Z,100.00
2016-09-01T05:13:34.431Z,100.00
2016-09-01T05:14:39.096Z,100.00
2016-09-01T05:16:27.534Z,100.00
2016-09-01T05:17:34.766Z,100.00
2016-09-01T05:18:33.848Z,100.00
2016-09-01T05:20:28.037Z,100.00
2016-09-01T05:21:32.132Z,100.00
2016-09-01T05:23:27.823Z,100.00
2016-09-01T05:24:34.148Z,100.00
2016-09-01T05:25:17.395Z,100.00
2016-09-01T05:26:18.584Z,100.00
2016-09-01T05:28:38.218Z,100.00
2016-09-01T05:30:27.761Z,100.00
2016-09-01T05:31:27.325Z,100.00
2016-09-01T05:32:26.750Z,100.00
2016-09-01T05:33:31.247Z,100.00
2016-09-01T05:34:24.990Z,100.00
2016-09-01T05:35:40.151Z,100.00
2016-09-01T05:36:34.544Z,100.00
2016-09-01T05:38:26.155Z,100.00
2016-09-01T05:39:33.747Z,100.00
2016-09-01T05:40:34.078Z,100.00
2016-09-01T05:43:24.018Z,100.00
2016-09-01T05:44:27.040Z,100.00
2016-09-01T05:45:35.510Z,100.00
2016-09-01T05:47:38.453Z,100.00
2016-09-01T05:48:31.090Z,100.00
2016-09-01T05:49:30.295Z,100.00
2016-09-01T05:50:51.894Z,100.00
2016-09-01T05:51:33.710Z,100.00
2016-09-01T05:52:28.919Z,100.00
2016-09-01T05:54:28.481Z,100.00
2016-09-01T05:56:55.016Z,100.00
2016-09-01T05:57:41.265Z,100.00
2016-09-01T05:58:39.760Z,100.00
2016-09-01T05:59:34.897Z,100.00
2016-09-01T06:00:34.387Z,100.00
2016-09-01T06:01:33.606Z,100.00
2016-09-01T06:03:39.564Z,100.00
2016-09-01T06:04:25.650Z,100.00
2016-09-01T06:05:28.911Z,100.00
2016-09-01T06:06:44.054Z,100.00
2016-09-01T06:07:34.320Z,100.00
2016-09-01T06:08:33.585Z,100.00
2016-09-01T06:09:35.101Z,100.00
2016-09-01T06:10:41.761Z,100.00
2016-09-01T06:11:34.412Z,100.00
2016-09-01T06:12:35.538Z,100.00
2016-09-01T06:13:32.858Z,100.00
2016-09-01T06:14:38.765Z,100.00
2016-09-01T06:15:27.055Z,100.00
2016-09-01T06:16:39.129Z,100.00
2016-09-01T06:17:33.148Z,100.00
2016-09-01T06:18:33.367Z,100.00
2016-09-01T06:19:39.187Z,100.00
2016-09-01T06:22:34.182Z,100.00
2016-09-01T06:23:33.469Z,100.00
2016-09-01T06:24:33.794Z,100.00
2016-09-01T06:25:24.537Z,100.00
2016-09-01T06:26:37.248Z,100.00
2016-09-01T06:27:30.530Z,100.00
2016-09-01T06:28:39.845Z,100.00
2016-09-01T06:29:39.487Z,100.00
2016-09-01T06:30:40.433Z,100.00
2016-09-01T06:31:51.738Z,100.00
2016-09-01T06:32:33.452Z,100.00
2016-09-01T06:33:24.861Z,100.00
2016-09-01T06:34:38.862Z,100.00
2016-09-01T06:35:27.437Z,100.00
2016-09-01T06:36:40.347Z,100.00
2016-09-01T06:37:33.525Z,100.00
2016-09-01T06:38:33.252Z,100.00
2016-09-01T06:39:29.069Z,100.00
2016-09-01T06:42:32.635Z,100.00
2016-09-01T06:43:22.618Z,100.00
2016-09-01T06:44:24.122Z,100.00
2016-09-01T06:45:32.834Z,100.00
2016-09-01T06:46:32.185Z,100.00
2016-09-01T06:47:25.232Z,100.00
2016-09-01T06:48:25.171Z,100.00
2016-09-01T06:49:26.587Z,100.00
2016-09-01T06:50:25.753Z,100.00
2016-09-01T06:51:24.718Z,100.00
2016-09-01T06:52:40.212Z,100.00
2016-09-01T06:53:35.255Z,100.00
2016-09-01T06:54:29.636Z,100.00
2016-09-01T06:55:24.100Z,100.00
2016-09-01T06:56:24.743Z,100.00
2016-09-01T06:57:32.564Z,100.00
2016-09-01T06:58:29.185Z,100.00
2016-09-01T06:59:25.585Z,100.00
2016-09-01T07:00:25.414Z,100.00
2016-09-01T07:01:37.632Z,100.00
2016-09-01T07:02:29.233Z,100.00
2016-09-01T07:03:26.859Z,100.00
2016-09-01T07:04:25.098Z,100.00
2016-09-01T07:05:38.253Z,100.00
2016-09-01T07:06:24.313Z,100.00
2016-09-01T07:07:34.604Z,100.00
2016-09-01T07:08:40.321Z,100.00
2016-09-01T07:09:25.433Z,100.00
2016-09-01T07:10:30.607Z,100.00
2016-09-01T07:11:29.225Z,100.00
2016-09-01T07:12:25.507Z,100.00
2016-09-01T07:13:32.690Z,100.00
2016-09-01T07:14:31.576Z,100.00
2016-09-01T07:15:24.957Z,100.00
2016-09-01T07:16:27.846Z,100.00
2016-09-01T07:17:51.514Z,100.00
2016-09-01T07:18:33.613Z,100.00
2016-09-01T07:19:33.469Z,100.00
2016-09-01T07:20:29.262Z,100.00
2016-09-01T07:21:26.840Z,100.00
2016-09-01T07:22:40.370Z,100.00
2016-09-01T07:23:31.335Z,100.00
2016-09-01T07:25:32.620Z,100.00
2016-09-01T07:27:33.939Z,100.00
2016-09-01T07:28:33.756Z,100.00
2016-09-01T07:30:25.477Z,100.00
2016-09-01T07:31:55.328Z,100.00
2016-09-01T07:32:26.915Z,100.00
2016-09-01T07:33:31.615Z,100.00
2016-09-01T07:34:25.163Z,100.00
2016-09-01T07:35:38.993Z,100.00
2016-09-01T07:36:27.799Z,100.00
2016-09-01T07:37:34.370Z,100.00
2016-09-01T07:38:33.721Z,100.00
2016-09-01T07:39:33.826Z,100.00
2016-09-01T07:40:51.865Z,100.00
2016-09-01T07:41:34.078Z,100.00
2016-09-01T07:42:33.905Z,100.00
2016-09-01T07:43:31.015Z,100.00
2016-09-01T07:44:31.556Z,100.00
2016-09-01T07:45:33.030Z,100.00
2016-09-01T07:46:25.502Z,100.00
2016-09-01T07:47:30.692Z,100.00
2016-09-01T07:48:26.822Z,100.00
2016-09-01T07:49:33.372Z,100.00
2016-09-01T07:50:21.094Z,100.00
2016-09-01T07:51:24.420Z,100.00
2016-09-01T07:52:33.138Z,100.00
2016-09-01T07:53:33.271Z,100.00
2016-09-01T07:56:37.543Z,100.00
2016-09-01T07:57:31.122Z,100.00
2016-09-01T08:00:24.667Z,100.00
2016-09-01T08:01:22.793Z,100.00
2016-09-01T08:02:33.905Z,100.00
2016-09-01T08:03:30.970Z,100.00
2016-09-01T08:04:23.052Z,100.00
2016-09-01T08:05:23.398Z,100.00
2016-09-01T08:06:57.318Z,100.00
2016-09-01T08:07:21.507Z,100.00
2016-09-01T08:08:33.136Z,100.00
2016-09-01T08:09:37.840Z,100.00
2016-09-01T08:11:33.089Z,100.00
2016-09-01T08:13:34.686Z,100.00
2016-09-01T08:14:33.639Z,100.00
2016-09-01T08:15:38.947Z,100.00
2016-09-01T08:16:26.237Z,100.00
2016-09-01T08:17:24.202Z,100.00
2016-09-01T08:18:32.951Z,100.00
2016-09-01T08:19:37.919Z,100.00
2016-09-01T08:20:39.888Z,100.00
2016-09-01T08:21:33.024Z,100.00
2016-09-01T08:22:28.509Z,100.00
2016-09-01T08:23:28.712Z,100.00
2016-09-01T08:24:33.906Z,100.00
2016-09-01T08:25:34.160Z,100.00
2016-09-01T08:26:24.251Z,100.00
2016-09-01T08:27:40.306Z,100.00
2016-09-01T08:29:26.761Z,99.25
2016-09-01T08:31:34.012Z,99.97
2016-09-01T08:32:32.962Z,99.83
2016-09-01T08:33:32.129Z,99.96
2016-09-01T08:34:38.602Z,100.00
2016-09-01T08:35:38.569Z,99.85
2016-09-01T08:37:25.099Z,99.43
2016-09-01T08:38:24.789Z,99.44
2016-09-01T08:39:26.571Z,99.81
2016-09-01T08:40:27.160Z,99.83
2016-09-01T08:41:27.962Z,99.75
2016-09-01T08:43:33.789Z,99.66
2016-09-01T08:44:26.256Z,99.45
2016-09-01T08:45:24.836Z,99.13
2016-09-01T08:46:33.127Z,98.60
2016-09-01T08:47:32.238Z,98.45
2016-09-01T08:48:24.331Z,98.69
2016-09-01T08:49:27.466Z,99.20
2016-09-01T08:51:46.262Z,97.80
2016-09-01T08:52:29.018Z,98.08
2016-09-01T08:53:32.174Z,98.25
2016-09-01T08:54:37.724Z,98.05
2016-09-01T08:55:34.228Z,97.81
2016-09-01T08:56:42.484Z,97.82
2016-09-01T08:57:39.428Z,97.75
2016-09-01T09:01:33.910Z,94.33
2016-09-01T09:02:33.735Z,95.12
2016-09-01T09:03:33.823Z,93.60
2016-09-01T09:04:25.933Z,94.46
2016-09-01T09:05:33.174Z,94.32
2016-09-01T09:06:31.417Z,92.97
2016-09-01T09:07:24.801Z,93.35
2016-09-01T09:09:38.607Z,92.88
2016-09-01T09:10:30.556Z,93.38
2016-09-01T09:11:25.114Z,93.36
2016-09-01T09:12:31.155Z,92.16
2016-09-01T09:13:31.600Z,90.97
2016-09-01T09:14:33.738Z,89.47
2016-09-01T09:16:27.310Z,90.79
2016-09-01T09:17:39.576Z,90.91
2016-09-01T09:18:28.031Z,91.02
2016-09-01T09:19:18.572Z,90.82
2016-09-01T09:21:43.035Z,89.48
2016-09-01T09:22:25.411Z,89.86
2016-09-01T09:23:33.513Z,87.03
2016-09-01T09:24:29.156Z,86.65
2016-09-01T09:25:28.665Z,87.57
2016-09-01T09:26:35.495Z,88.32
2016-09-01T09:27:24.178Z,88.46
2016-09-01T09:28:37.396Z,89.15
2016-09-01T09:29:23.364Z,89.23
2016-09-01T09:30:35.560Z,89.27
2016-09-01T09:31:26.353Z,89.20
2016-09-01T09:32:37.635Z,89.35
2016-09-01T09:33:34.184Z,89.50
2016-09-01T09:34:28.411Z,86.44
2016-09-01T09:35:34.500Z,85.89
2016-09-01T09:36:24.620Z,85.06
2016-09-01T09:37:30.450Z,84.01
2016-09-01T09:38:24.396Z,83.08
2016-09-01T09:39:24.670Z,83.21
2016-09-01T09:40:18.179Z,81.96
2016-09-01T09:41:28.940Z,83.41
2016-09-01T09:42:35.442Z,82.51
2016-09-01T09:43:28.470Z,82.89
2016-09-01T09:44:25.207Z,83.02
2016-09-01T09:45:30.635Z,83.23
2016-09-01T09:46:35.045Z,83.28
2016-09-01T09:47:32.270Z,83.80
2016-09-01T09:48:29.809Z,82.64
2016-09-01T09:49:22.611Z,82.84
2016-09-01T09:50:27.622Z,82.73
2016-09-01T09:51:34.278Z,83.40
2016-09-01T09:52:30.211Z,83.82
2016-09-01T09:53:29.289Z,83.08
2016-09-01T09:54:23.626Z,83.18
2016-09-01T09:55:24.887Z,83.31
2016-09-01T09:56:25.292Z,84.09
2016-09-01T09:57:28.674Z,83.78
2016-09-01T09:58:23.400Z,78.59
2016-09-01T09:59:23.420Z,79.47
2016-09-01T10:00:23.947Z,79.76
2016-09-01T10:01:29.106Z,79.29
2016-09-01T10:02:25.209Z,80.08
2016-09-01T10:03:19.174Z,80.86
2016-09-01T10:04:26.812Z,81.61
2016-09-01T10:06:28.276Z,83.82
2016-09-01T10:07:14.938Z,84.33
2016-09-01T10:08:18.798Z,84.93
2016-09-01T10:09:18.675Z,84.78
2016-09-01T10:10:27.205Z,84.82
2016-09-01T10:11:24.682Z,84.58
2016-09-01T10:12:11.883Z,85.19
2016-09-01T10:13:11.832Z,85.07
2016-09-01T10:14:09.460Z,84.16
2016-09-01T10:15:36.709Z,83.34
2016-09-01T10:16:13.747Z,82.82
2016-09-01T10:17:25.977Z,82.75
2016-09-01T10:18:31.438Z,82.48
2016-09-01T10:19:31.555Z,80.35
2016-09-01T10:20:49.647Z,81.33
2016-09-01T10:22:31.322Z,81.73
2016-09-01T10:24:18.515Z,82.85
2016-09-01T10:25:23.414Z,81.67
2016-09-01T10:26:18.305Z,80.00
2016-09-01T10:27:36.999Z,76.57
2016-09-01T10:28:34.258Z,74.96
2016-09-01T10:29:23.623Z,76.08
2016-09-01T10:30:30.595Z,76.86
2016-09-01T10:31:33.786Z,75.83
2016-09-01T10:32:28.952Z,75.40
2016-09-01T10:33:34.408Z,74.43
2016-09-01T10:34:37.935Z,74.48
2016-09-01T10:35:39.330Z,75.16
2016-09-01T10:36:36.929Z,75.50
2016-09-01T10:37:31.572Z,75.92
2016-09-01T10:38:25.732Z,75.25
2016-09-01T10:39:30.933Z,75.36
2016-09-01T10:40:39.465Z,76.79
2016-09-01T10:41:28.837Z,76.49
2016-09-01T10:42:22.779Z,76.20
2016-09-01T10:43:32.296Z,76.28
2016-09-01T10:44:29.613Z,76.56
2016-09-01T10:45:52.363Z,76.52
2016-09-01T10:46:29.760Z,76.87
2016-09-01T10:47:28.895Z,76.73
2016-09-01T10:48:33.781Z,77.03
2016-09-01T10:49:34.417Z,78.06
2016-09-01T10:50:33.864Z,77.44
2016-09-01T10:51:37.135Z,77.94
2016-09-01T10:52:24.602Z,78.08
2016-09-01T10:53:33.840Z,78.25
2016-09-01T10:54:34.651Z,79.15
2016-09-01T10:55:36.078Z,78.73
2016-09-01T10:57:40.928Z,77.58
2016-09-01T10:58:23.310Z,73.84
2016-09-01T10:59:33.420Z,73.02
2016-09-01T11:01:42.133Z,72.11
2016-09-01T11:03:20.306Z,66.01
2016-09-01T11:04:23.262Z,65.45
2016-09-01T11:06:04.216Z,64.81
2016-09-01T11:06:35.301Z,63.29
2016-09-01T11:07:29.182Z,63.92
2016-09-01T11:08:24.235Z,65.01
2016-09-01T11:09:24.660Z,64.28
2016-09-01T11:10:29.586Z,62.68
2016-09-01T11:12:27.928Z,61.24
2016-09-01T11:13:19.885Z,62.97
2016-09-01T11:14:22.112Z,63.58
2016-09-01T11:15:19.983Z,63.05
2016-09-01T11:16:21.172Z,63.20
2016-09-01T11:17:23.088Z,63.03
2016-09-01T11:18:24.969Z,62.27
2016-09-01T11:19:24.178Z,62.19
2016-09-01T11:20:22.838Z,60.68
2016-09-01T11:21:25.082Z,61.45
2016-09-01T11:22:19.016Z,62.62
2016-09-01T11:24:21.997Z,66.99
2016-09-01T11:25:19.620Z,68.61
2016-09-01T11:26:45.569Z,68.38
2016-09-01T11:27:23.440Z,66.23
2016-09-01T11:28:30.120Z,66.66
2016-09-01T11:29:14.469Z,67.13
2016-09-01T11:30:11.102Z,66.90
2016-09-01T11:31:19.781Z,68.10
2016-09-01T11:32:25.506Z,68.34
2016-09-01T11:33:25.848Z,69.36
2016-09-01T11:34:31.914Z,69.28
2016-09-01T11:35:33.069Z,69.60
2016-09-01T11:37:31.832Z,64.06
2016-09-01T11:38:33.192Z,64.69
2016-09-01T11:39:27.942Z,63.80
2016-09-01T11:40:19.971Z,61.16
2016-09-01T11:41:29.640Z,62.39
2016-09-01T11:42:24.190Z,62.42
2016-09-01T11:44:57.869Z,61.10
2016-09-01T11:45:24.642Z,61.66
2016-09-01T11:46:22.441Z,62.28
2016-09-01T11:47:33.171Z,62.26
2016-09-01T11:50:04.472Z,63.14
2016-09-01T11:50:35.147Z,63.06
2016-09-01T11:51:23.836Z,62.55
2016-09-01T11:53:23.840Z,62.22
2016-09-01T11:54:32.481Z,62.88
2016-09-01T11:57:25.729Z,62.86
2016-09-01T11:58:32.486Z,60.90
2016-09-01T11:59:34.234Z,62.89
2016-09-01T12:00:37.233Z,61.03
2016-09-01T12:02:23.273Z,59.51
2016-09-01T12:03:31.350Z,59.04
2016-09-01T12:04:20.171Z,57.06
2016-09-01T12:05:23.751Z,58.30
2016-09-01T12:06:28.826Z,58.32
2016-09-01T12:07:25.381Z,58.05
2016-09-01T12:08:32.973Z,57.55
2016-09-01T12:09:24.993Z,59.27
2016-09-01T12:10:22.299Z,54.35
2016-09-01T12:11:48.559Z,56.27
2016-09-01T12:12:23.729Z,54.40
2016-09-01T12:13:30.174Z,54.67
2016-09-01T12:14:23.796Z,58.05
2016-09-01T12:15:32.324Z,58.98
2016-09-01T12:16:32.631Z,58.96
2016-09-01T12:17:32.435Z,59.36
2016-09-01T12:18:28.093Z,58.53
2016-09-01T12:19:25.430Z,56.79
2016-09-01T12:20:33.044Z,56.44
2016-09-01T12:21:23.005Z,56.25
2016-09-01T12:22:23.183Z,57.50
2016-09-01T12:23:33.813Z,55.39
2016-09-01T12:24:34.109Z,57.20
2016-09-01T12:25:34.578Z,56.05
2016-09-01T12:26:23.705Z,56.83
2016-09-01T12:27:33.443Z,57.04
2016-09-01T12:28:22.986Z,58.89
2016-09-01T12:29:25.333Z,61.29
2016-09-01T12:30:23.570Z,63.19
2016-09-01T12:32:23.775Z,64.59
2016-09-01T12:32:24.325Z,63.43
2016-09-01T12:33:29.021Z,61.00
2016-09-01T12:34:22.510Z,59.11
2016-09-01T12:35:30.556Z,56.78
2016-09-01T12:36:25.498Z,54.80
2016-09-01T12:37:34.476Z,56.74
2016-09-01T12:38:39.198Z,55.89
2016-09-01T12:39:28.272Z,56.21
2016-09-01T12:40:28.494Z,57.58
2016-09-01T12:41:28.230Z,59.04
2016-09-01T12:42:17.684Z,59.40
2016-09-01T12:43:24.283Z,57.65
2016-09-01T12:44:23.737Z,55.01
2016-09-01T12:45:28.150Z,56.44
2016-09-01T12:46:28.010Z,59.82
2016-09-01T12:47:23.238Z,58.73
2016-09-01T12:48:22.232Z,58.38
2016-09-01T12:49:22.335Z,58.24
2016-09-01T12:50:28.206Z,59.62
2016-09-01T12:51:27.824Z,60.65
2016-09-01T12:52:29.273Z,61.83
2016-09-01T12:53:28.411Z,62.30
2016-09-01T12:54:25.364Z,64.33
2016-09-01T12:55:24.016Z,63.85
2016-09-01T12:56:33.155Z,63.68
2016-09-01T12:57:34.286Z,60.34
2016-09-01T12:58:28.581Z,60.81
2016-09-01T12:59:18.234Z,60.98
2016-09-01T13:00:22.663Z,61.32
2016-09-01T13:01:30.653Z,61.33
2016-09-01T13:02:23.379Z,60.60
2016-09-01T13:03:26.424Z,59.17
2016-09-01T13:04:29.411Z,57.54
2016-09-01T13:05:23.977Z,57.46
2016-09-01T13:06:23.048Z,57.46
2016-09-01T13:07:37.782Z,57.56
2016-09-01T13:08:22.564Z,57.86
2016-09-01T13:09:46.049Z,56.65
2016-09-01T13:10:41.594Z,56.98
2016-09-01T13:11:28.890Z,56.35
2016-09-01T13:12:22.828Z,56.45
2016-09-01T13:14:26.726Z,56.82
2016-09-01T13:15:28.532Z,55.96
2016-09-01T13:16:18.100Z,55.37
2016-09-01T13:17:22.550Z,55.71
2016-09-01T13:18:23.452Z,56.20
2016-09-01T13:19:25.770Z,56.24
2016-09-01T13:20:23.261Z,56.82
2016-09-01T13:21:23.272Z,56.83
2016-09-01T13:22:33.162Z,56.81
2016-09-01T13:23:23.299Z,55.99
2016-09-01T13:24:23.060Z,56.28
2016-09-01T13:25:22.962Z,57.20
2016-09-01T13:26:31.955Z,58.50
2016-09-01T13:27:23.737Z,57.45
2016-09-01T13:28:23.702Z,59.29
2016-09-01T13:29:26.603Z,59.49
2016-09-01T13:30:22.913Z,60.30
2016-09-01T13:31:23.555Z,60.69
2016-09-01T13:32:23.408Z,60.13
2016-09-01T13:33:23.990Z,61.79